Adrian, MN (56110)

2:36 AM CDT on August 29, 2015 (GMT -0500)
WolfPork | | Change Station
CLOSE
Current Station
Personal Weather Station
Location: Adrian, MN
Elevation: 1568 ft
Nearby Weather Stations

Elev 1568 ft 43.59 °N, 95.96 °W | Updated 2 minutes ago

Clear
Clear
54.5 °F
Feels Like 54.5 °F
N
2.7
Wind Variable Wind from NNW

Today
High -- | Low -- °F
--% Chance of Precip.
Yesterday
High -- | Low -- °F
Precip. -- in
6:43 AM 8:04 PM
Full, 100% visible
Pressure 30.03 in
Visibility 10.0 miles
Clouds Scattered Clouds 12000 ft
Dew Point 52 °F
Humidity 91%
Rainfall 0.00 in
Snow Depth Not available.
UV 0 out of 12
Pollen 3.10 out of 12
Air Quality Not available.
Flu Activity Not available.
METAR KLYV 290734Z AUTO 00000KT 10SM SCT120 12/11 A3003 RMK AO2
Pressure 30.03 in
Visibility 10.0 miles
Clouds Scattered Clouds 12000 ft
Dew Point 52 °F
Humidity 91%
Rainfall 0.00 in
Snow Depth Not available.
UV 0 out of 12
Pollen 3.10 out of 12
Air Quality Not available.
Flu Activity Not available.
METAR KLYV 290734Z AUTO 00000KT 10SM SCT120 12/11 A3003 RMK AO2

10-Day Weather Forecast

×

Almanac

Astronomy

Aug. 29, 2015 Rise Set
Actual Time
Civil Twilight
Nautical Twilight
Astronomical Twilight
Moon
Length of Visible Light
Length of Day
Tomorrow will be .
, % of the Moon is Illuminated

Today's Extremes

State Highs State Lows

Community

WunderPhotos

Upload Photos

1,850,634 photos uploaded!

WunderBlogs® & News

Nearby

Air Quality

  Air Quality AQ Index Pollutant
Not available.

Snow Depth

Station Depth Elevation

Earthquake Activity

City Distance Mag. Time & Date
Minimum magnitude displayed is 2.5.

Coastal Water Temperatures

Place Temperature

Stations

Nearby Weather Stations

Station Location Temp. Windchill Dew Point Humidity Wind Precip. Elev Updated Type